KFAR/FAR METAR and TAF weather

Enter ICAO airport designator
Station Type Date Time Source
KFAR METAR 2020/01/27 10:58 UTC NOAA

KFAR 271058Z AUTO 33014KT 3SM BR OVC007 M09/M11 A3009 RMK AO2 SNE58 P0000 T10891106


Station Type Date Time Source
KFAR Decoded METAR 2020/01/27 10:58 UTC NOAA

HECTOR INTERNATIONAL AIRPORT , ND, United States (KFAR) 46-56N 096-49W 277M
Jan 27, 2020 - 05:58 AM EST / 2020.01.27 1058 UTC
Wind: from the NNW (330 degrees) at 16 MPH (14 KT):0
Visibility: 3 mile(s):0
Sky conditions: overcast
Weather: mist
Precipitation last hour: A trace
Temperature: 16.0 F (-8.9 C)
Windchill: 1 F (-17 C):1
Dew Point: 12.9 F (-10.6 C)
Relative Humidity: 87%
Pressure (altimeter): 30.09 in. Hg (1018 hPa)
ob: KFAR 271058Z AUTO 33014KT 3SM BR OVC007 M09/M11 A3009 RMK AO2 SNE58 P0000 T10891106
cycle: 11

Station Type Date Time Source
KFAR TAF 2020/01/27 06:34 UTC NOAA

TAF KFAR 270531Z 2706/2806 35008KT P6SM OVC005
TEMPO 2706/2710 4SM BR
FM271400 35006KT P6SM OVC006
FM271800 35005KT P6SM OVC011
FM272200 32005KT P6SM BKN022

Example: see airport list